Time;durP1;ratioP1;P1;durP2;ratioP2;P2;SDS_P1;SDS_P2;PMS_P1;PMS_P2;Temp;Humidity;BMP_temperature;BMP_pressure;BME280_temperature;BME280_humidity;BME280_pressure;Samples;Min_cycle;Max_cycle;Signal;HPM_P1;HPM_P2
2022/09/16 00:08:20;;;;;;;30.65;10.88;;;24.90;99.90;;;;;;5372556;23;20440;-93
2022/09/16 00:10:47;;;;;;;23.23;11.15;;;24.80;99.90;;;;;;4977949;28;20062;-92
2022/09/16 00:13:15;;;;;;;25.08;10.88;;;24.80;99.90;;;;;;4974656;28;20031;-92
2022/09/16 00:15:46;;;;;;;25.30;12.15;;;24.80;99.90;;;;;;4975061;28;20038;-94
2022/09/16 00:18:15;;;;;;;20.38;10.02;;;24.80;99.90;;;;;;4974332;28;20023;-93
2022/09/16 00:20:48;;;;;;;17.67;10.25;;;24.80;99.90;;;;;;4974716;28;20086;-91
2022/09/16 00:23:16;;;;;;;22.27;10.32;;;24.80;99.90;;;;;;4958486;28;20026;-94
2022/09/16 00:25:43;;;;;;;17.33;9.95;;;24.90;99.90;;;;;;4974357;28;20031;-92
2022/09/16 00:28:09;;;;;;;32.28;10.68;;;24.90;99.90;;;;;;4974605;28;20035;-92
2022/09/16 00:30:39;;;;;;;24.02;10.52;;;24.90;99.90;;;;;;4974517;28;20102;-93
2022/09/16 00:33:06;;;;;;;19.33;10.57;;;24.90;99.90;;;;;;4974620;28;20042;-91
2022/09/16 00:35:32;;;;;;;18.38;9.27;;;24.80;99.90;;;;;;4974366;28;20030;-92
2022/09/16 00:37:59;;;;;;;19.60;10.23;;;24.80;99.90;;;;;;4974427;28;20090;-92
2022/09/16 00:40:25;;;;;;;21.60;9.88;;;24.80;99.90;;;;;;4974551;28;20034;-95
2022/09/16 00:42:52;;;;;;;24.38;11.25;;;24.80;99.90;;;;;;4974909;28;20031;-93
2022/09/16 00:45:22;;;;;;;25.17;11.50;;;24.70;99.90;;;;;;4974228;28;20122;-91
2022/09/16 00:48:18;;;;;;;23.73;11.75;;;24.70;99.90;;;;;;4974112;28;20489;-91
2022/09/16 00:50:55;;;;;;;19.65;11.13;;;24.70;99.90;;;;;;4957489;28;20050;-93
2022/09/16 00:53:33;;;;;;;21.85;11.18;;;24.60;99.90;;;;;;4974223;28;20459;-92
2022/09/16 00:56:03;;;;;;;20.88;11.50;;;24.60;99.90;;;;;;4975369;28;20545;-93
2022/09/16 00:59:18;;;;;;;24.92;12.68;;;24.60;99.90;;;;;;4958203;28;20031;-94
2022/09/16 01:01:50;;;;;;;25.48;11.55;;;24.60;99.90;;;;;;4933927;28;20042;-91
2022/09/16 01:04:30;;;;;;;25.77;12.45;;;24.60;99.90;;;;;;4974172;28;20114;-91
2022/09/16 01:06:58;;;;;;;24.80;13.02;;;24.60;99.90;;;;;;4974099;28;20042;-93
2022/09/16 01:09:32;;;;;;;33.40;13.40;;;24.60;99.90;;;;;;4974633;28;20043;-93
2022/09/16 01:11:59;;;;;;;21.95;12.93;;;24.60;99.90;;;;;;4974403;28;20022;-92
2022/09/16 01:18:05;;;;;;;30.90;12.85;;;24.50;99.90;;;;;;4961680;28;20094;-92
2022/09/16 01:20:32;;;;;;;25.20;12.60;;;24.60;99.90;;;;;;4977564;28;20496;-93
2022/09/16 01:23:24;;;;;;;25.08;11.43;;;24.50;99.90;;;;;;4945705;28;20046;-94
2022/09/16 01:26:11;;;;;;;25.33;11.70;;;24.50;99.90;;;;;;4945726;28;20034;-93
2022/09/16 01:28:52;;;;;;;26.77;12.20;;;24.40;99.90;;;;;;4945665;28;20039;-93
2022/09/16 01:31:42;;;;;;;20.25;10.98;;;24.40;99.90;;;;;;4977462;28;20026;-92
2022/09/16 01:34:27;;;;;;;23.92;12.88;;;24.40;99.90;;;;;;4977471;28;20042;-92
2022/09/16 01:37:04;;;;;;;28.48;13.13;;;24.40;99.90;;;;;;4961672;28;20066;-94
2022/09/16 01:40:02;;;;;;;23.63;12.70;;;24.40;99.90;;;;;;4945450;28;20042;-91
2022/09/16 01:42:47;;;;;;;27.70;12.30;;;24.40;99.90;;;;;;4977590;28;20030;-91
2022/09/16 01:45:18;;;;;;;28.30;14.05;;;24.40;99.90;;;;;;4961576;28;20039;-93
2022/09/16 01:48:00;;;;;;;30.08;15.38;;;24.30;99.90;;;;;;4945275;28;20027;-93
2022/09/16 01:50:38;;;;;;;26.13;11.85;;;24.40;99.90;;;;;;4976981;28;20078;-92
2022/09/16 01:53:17;;;;;;;22.58;12.77;;;24.30;99.90;;;;;;4977576;28;20061;-93
2022/09/16 01:56:11;;;;;;;25.08;12.55;;;24.30;99.90;;;;;;4977107;28;20031;-94
2022/09/16 01:58:45;;;;;;;33.58;13.00;;;24.30;99.90;;;;;;4945330;28;20433;-92
2022/09/16 02:01:30;;;;;;;40.20;14.02;;;24.30;99.90;;;;;;4977197;28;20125;-92
2022/09/16 02:04:03;;;;;;;30.67;15.82;;;24.30;99.90;;;;;;4979139;28;20062;-92
2022/09/16 02:06:32;;;;;;;24.65;15.02;;;24.40;99.90;;;;;;4983659;28;20035;-91
2022/09/16 02:09:20;;;;;;;34.30;18.38;;;24.40;99.90;;;;;;4979869;28;20047;-93
2022/09/16 02:11:54;;;;;;;28.17;15.35;;;24.40;99.90;;;;;;4976920;28;20035;-93
2022/09/16 02:14:23;;;;;;;;;;;24.30;99.90;;;;;;4960993;28;20031;-91
2022/09/16 02:16:59;;;;;;;26.67;13.80;;;24.30;99.90;;;;;;4960740;28;20385;-91
2022/09/16 02:19:38;;;;;;;40.70;17.58;;;24.30;99.90;;;;;;4976883;28;20023;-93
2022/09/16 02:22:14;;;;;;;32.20;15.80;;;24.30;99.90;;;;;;4976262;28;20034;-92
2022/09/16 02:24:44;;;;;;;35.60;17.40;;;24.20;99.90;;;;;;4976763;28;20038;-94
2022/09/16 02:27:16;;;;;;;27.70;16.20;;;24.20;99.90;;;;;;4976175;28;20035;-91
2022/09/16 02:29:51;;;;;;;29.35;17.02;;;24.30;99.90;;;;;;4976395;28;20548;-92
2022/09/16 02:32:22;;;;;;;29.00;15.10;;;24.30;99.90;;;;;;4976385;28;20419;-92
2022/09/16 02:34:56;;;;;;;26.83;13.73;;;24.20;99.90;;;;;;4976335;28;20035;-92
2022/09/16 02:37:33;;;;;;;27.40;16.27;;;24.20;99.90;;;;;;4976108;28;20023;-91
2022/09/16 02:40:06;;;;;;;30.55;15.90;;;24.20;99.90;;;;;;4960265;28;20050;-92
2022/09/16 02:42:34;;;;;;;24.40;15.10;;;24.10;99.90;;;;;;4976093;28;20035;-92
2022/09/16 02:45:04;;;;;;;26.10;13.80;;;24.10;99.90;;;;;;4976151;28;20035;-90
2022/09/16 02:48:07;;;;;;;30.42;15.98;;;24.10;99.90;;;;;;4976168;28;20038;-95
2022/09/16 02:50:52;;;;;;;24.88;13.65;;;24.20;99.90;;;;;;4960050;28;20039;-92
2022/09/16 02:53:44;;;;;;;26.08;13.88;;;24.10;99.90;;;;;;4975949;28;20512;-93
2022/09/16 02:56:22;;;;;;;26.80;15.82;;;24.20;99.90;;;;;;4943657;28;20035;-93
2022/09/16 02:58:49;;;;;;;30.70;14.88;;;24.20;99.90;;;;;;4943884;28;20034;-94
2022/09/16 03:01:17;;;;;;;22.00;14.52;;;24.30;99.90;;;;;;4975957;28;20121;-92
2022/09/16 03:03:43;;;;;;;31.13;15.18;;;24.40;99.90;;;;;;4975762;28;20027;-96
2022/09/16 03:06:38;;;;;;;23.67;13.65;;;24.40;99.90;;;;;;4976727;28;20502;-94
2022/09/16 03:09:12;;;;;;;28.92;13.70;;;24.40;99.90;;;;;;4879914;29;20052;-92
2022/09/16 03:14:55;;;;;;;;;;;;;;;;;;;;;
2022/09/16 03:18:34;;;;;;;;;;;;;;;;;;;;;
2022/09/16 03:22:06;;;;;;;36.45;16.30;;;24.50;99.90;;;;;;5090339;23;20081;-93
2022/09/16 03:25:49;;;;;;;27.58;14.40;;;24.60;99.90;;;;;;5003652;28;20041;-93
2022/09/16 03:32:20;;;;;;;25.83;14.82;;;24.50;99.90;;;;;;4911871;29;20043;-93
2022/09/16 03:40:28;;;;;;;26.08;13.25;;;24.50;99.90;;;;;;4938608;29;20058;-94
2022/09/16 03:42:58;;;;;;;38.53;15.00;;;24.60;99.90;;;;;;4902948;29;20028;-94
2022/09/16 03:45:48;;;;;;;28.55;13.57;;;24.60;99.90;;;;;;4903109;29;20036;-93
2022/09/16 03:48:47;;;;;;;25.80;13.13;;;24.60;99.90;;;;;;4909540;29;20047;-92
2022/09/16 03:51:23;;;;;;;24.98;13.27;;;24.60;99.90;;;;;;4922752;29;20462;-92
2022/09/16 03:54:04;;;;;;;23.63;12.98;;;24.50;99.90;;;;;;4937344;29;20031;-92
2022/09/16 03:57:19;;;;;;;;;;;;;;;;;;;;;
2022/09/16 03:59:39;;;;;;;26.17;12.75;;;24.60;99.90;;;;;;4933735;29;20498;-94
2022/09/16 04:02:07;;;;;;;30.75;13.30;;;24.60;99.90;;;;;;4920791;29;20036;-91
2022/09/16 04:04:33;;;;;;;24.80;12.77;;;24.60;99.90;;;;;;4936372;29;20035;-94
2022/09/16 04:07:32;;;;;;;26.13;14.07;;;24.60;99.90;;;;;;4937444;29;20069;-93
2022/09/16 04:10:07;;;;;;;27.65;14.00;;;24.60;99.90;;;;;;4937142;29;20051;-94
2022/09/16 04:19:13;;;;;;;24.33;12.73;;;24.60;99.90;;;;;;4918080;29;20490;-90
2022/09/16 04:21:41;;;;;;;29.00;13.48;;;24.60;99.90;;;;;;4905226;29;20039;-91
2022/09/16 04:24:08;;;;;;;22.13;11.73;;;24.60;99.90;;;;;;4920784;29;20083;-92
2022/09/16 04:26:34;;;;;;;27.70;12.93;;;24.70;99.90;;;;;;4922019;29;20051;-92
2022/09/16 04:29:01;;;;;;;28.58;12.82;;;24.70;99.90;;;;;;4939845;29;20481;-91
2022/09/16 04:31:28;;;;;;;23.90;11.85;;;24.70;99.90;;;;;;4925407;29;20051;-90
2022/09/16 04:33:55;;;;;;;20.35;12.10;;;24.60;99.90;;;;;;4924436;29;20027;-92
2022/09/16 04:36:22;;;;;;;17.95;10.98;;;24.70;99.90;;;;;;4924253;29;20031;-92
2022/09/16 04:38:52;;;;;;;21.55;12.00;;;24.70;99.90;;;;;;4941119;29;20031;-92
2022/09/16 04:41:25;;;;;;;21.77;11.70;;;24.70;99.90;;;;;;4930150;29;20054;-91
2022/09/16 04:43:56;;;;;;;20.90;12.03;;;24.70;99.90;;;;;;4946015;29;20058;-90
2022/09/16 04:46:26;;;;;;;19.63;11.70;;;24.70;99.90;;;;;;4953266;29;20032;-92
2022/09/16 04:49:20;;;;;;;19.75;10.85;;;24.70;99.90;;;;;;4938898;28;20066;-90
2022/09/16 04:51:51;;;;;;;18.40;11.07;;;24.80;99.90;;;;;;4950697;28;20039;-91
2022/09/16 04:54:18;;;;;;;26.35;12.73;;;24.80;99.90;;;;;;4935684;29;20031;-90
2022/09/16 04:56:45;;;;;;;19.63;10.65;;;24.80;99.90;;;;;;4933079;29;20074;-93
2022/09/16 04:59:15;;;;;;;27.60;11.45;;;24.90;99.90;;;;;;4933862;29;20031;-94
2022/09/16 05:01:42;;;;;;;19.27;10.73;;;24.90;99.90;;;;;;4933864;29;20035;-92
2022/09/16 05:04:21;;;;;;;21.83;10.98;;;25.00;99.90;;;;;;4933329;29;20047;-92
2022/09/16 05:06:48;;;;;;;18.42;10.40;;;25.00;99.90;;;;;;4917086;29;20036;-93
2022/09/16 05:09:15;;;;;;;21.90;10.48;;;25.00;99.90;;;;;;4932608;29;20047;-91
2022/09/16 05:11:45;;;;;;;19.83;10.07;;;25.10;99.90;;;;;;4932398;29;20062;-93
2022/09/16 05:14:18;;;;;;;21.35;9.75;;;25.10;99.90;;;;;;4950099;29;20050;-94
2022/09/16 05:16:45;;;;;;;20.35;8.95;;;25.00;99.90;;;;;;4931880;29;20038;-92
2022/09/16 05:19:13;;;;;;;18.60;8.80;;;25.10;99.90;;;;;;4932956;29;20031;-95
2022/09/16 05:21:41;;;;;;;18.63;8.90;;;25.10;99.90;;;;;;4938565;29;20042;-92
2022/09/16 05:24:11;;;;;;;22.88;9.27;;;25.20;99.90;;;;;;4945184;29;20123;-92
2022/09/16 05:26:42;;;;;;;17.65;8.30;;;25.30;99.90;;;;;;4936380;29;20027;-93
2022/09/16 05:29:12;;;;;;;21.90;9.13;;;25.20;99.90;;;;;;4934914;29;20067;-93
2022/09/16 05:31:42;;;;;;;20.67;9.82;;;25.30;99.90;;;;;;4932860;29;20027;-92
2022/09/16 05:34:13;;;;;;;18.30;8.88;;;25.40;99.90;;;;;;4929719;29;20055;-92
2022/09/16 05:36:46;;;;;;;22.67;8.57;;;25.40;99.90;;;;;;4929852;29;20038;-89
2022/09/16 05:39:16;;;;;;;15.27;8.50;;;25.60;99.90;;;;;;4930457;29;20040;-91
2022/09/16 05:41:44;;;;;;;18.55;8.43;;;25.80;99.90;;;;;;4930744;29;20031;-90
2022/09/16 05:44:11;;;;;;;17.63;7.35;;;26.00;99.90;;;;;;4929717;29;20062;-94
2022/09/16 05:46:42;;;;;;;15.18;6.30;;;26.10;99.90;;;;;;4931285;29;20027;-92
2022/09/16 05:49:19;;;;;;;16.80;6.00;;;26.50;99.90;;;;;;4930427;29;20122;-91
2022/09/16 05:52:10;;;;;;;19.88;6.20;;;27.00;99.90;;;;;;4952935;29;20101;-93
2022/09/16 05:54:37;;;;;;;16.73;5.55;;;27.40;99.90;;;;;;4926161;28;20489;-92
2022/09/16 05:57:03;;;;;;;14.80;5.30;;;27.70;99.90;;;;;;4927161;29;20492;-94
2022/09/16 05:59:30;;;;;;;11.52;4.75;;;28.00;99.90;;;;;;4925949;29;20039;-91
2022/09/16 06:01:57;;;;;;;16.30;5.80;;;28.40;99.90;;;;;;4925465;29;20031;-92
2022/09/16 06:04:24;;;;;;;14.38;6.05;;;28.40;99.90;;;;;;4925575;29;20110;-93
2022/09/16 06:06:50;;;;;;;12.50;5.47;;;28.50;99.90;;;;;;4925505;29;20035;-94
2022/09/16 06:09:27;;;;;;;14.93;6.00;;;28.60;99.90;;;;;;4925898;29;20035;-93
2022/09/16 06:11:54;;;;;;;13.70;5.47;;;28.80;99.90;;;;;;4925888;29;20389;-92
2022/09/16 06:14:21;;;;;;;9.23;5.43;;;28.70;99.90;;;;;;4925642;29;20051;-94
2022/09/16 06:16:49;;;;;;;13.10;5.68;;;28.80;99.90;;;;;;4925536;29;20031;-92
2022/09/16 06:19:17;;;;;;;10.18;5.72;;;28.90;99.90;;;;;;4925477;29;20031;-94
2022/09/16 06:22:02;;;;;;;9.15;6.10;;;28.70;99.90;;;;;;4925859;29;20028;-93
2022/09/16 06:24:29;;;;;;;18.15;6.55;;;28.80;99.90;;;;;;4925551;29;20039;-93
2022/09/16 06:26:55;;;;;;;17.48;7.38;;;28.80;99.90;;;;;;4925986;29;20047;-94
2022/09/16 06:29:42;;;;;;;12.73;7.10;;;29.00;99.90;;;;;;4931534;29;20135;-92
2022/09/16 06:44:05;;;;;;;15.43;7.47;;;29.40;99.90;;;;;;5671152;23;20050;-96
2022/09/16 06:53:21;;;;;;;16.08;6.05;;;30.30;99.90;;;;;;5723923;23;20400;-94
2022/09/16 08:19:21;;;;;;;13.43;9.40;;;31.90;99.90;;;;;;5098027;23;20383;-92
2022/09/16 08:22:13;;;;;;;15.77;9.98;;;32.40;99.90;;;;;;4970183;28;20118;-93
2022/09/16 08:24:42;;;;;;;11.13;10.02;;;32.40;99.90;;;;;;4986255;23;20381;-94
2022/09/16 08:27:08;;;;;;;14.82;10.60;;;32.30;99.90;;;;;;5078048;23;20173;-92
2022/09/16 08:32:44;;;;;;;13.93;10.77;;;32.50;99.90;;;;;;5233459;23;20479;-93
2022/09/16 08:48:12;;;;;;;11.20;10.07;;;32.80;99.90;;;;;;6045956;23;20079;-94
2022/09/16 08:51:05;;;;;;;17.83;10.82;;;32.60;99.90;;;;;;4963969;28;20042;-92
2022/09/16 09:24:07;;;;;;;14.45;10.40;;;32.30;99.90;;;;;;5000526;28;20403;-91
2022/09/16 09:26:51;;;;;;;17.25;11.18;;;32.80;99.90;;;;;;4983395;28;20037;-92
2022/09/16 09:33:44;;;;;;;13.40;10.80;;;32.40;99.90;;;;;;4898303;29;20458;-92
2022/09/16 09:37:10;;;;;;;12.60;10.60;;;32.60;99.90;;;;;;4813369;29;20099;-92
2022/09/16 10:04:04;;;;;;;;;;;;;;;;;;;;;
2022/09/16 10:07:01;;;;;;;14.38;11.45;;;32.40;99.90;;;;;;4720656;30;20048;-94
2022/09/16 10:17:31;;;;;;;;;;;;;;;;;;;;;
2022/09/16 10:20:30;;;;;;;13.52;12.18;;;33.20;99.90;;;;;;4918344;28;20046;-93
2022/09/16 10:24:19;;;;;;;14.45;12.25;;;32.80;99.90;;;;;;4980751;28;20031;-93
2022/09/16 10:27:03;;;;;;;14.30;12.40;;;32.70;99.90;;;;;;4914364;29;20043;-91
2022/09/16 11:05:46;;;;;;;15.23;13.82;;;33.60;99.90;;;;;;5361731;23;20495;-92
2022/09/16 11:08:36;;;;;;;15.82;14.63;;;33.30;99.90;;;;;;4978557;28;20030;-93
2022/09/16 11:11:16;;;;;;;15.63;14.10;;;33.40;99.90;;;;;;4934968;28;20048;-94
2022/09/16 11:14:04;;;;;;;16.25;13.30;;;33.50;99.90;;;;;;4982954;28;20065;-92
2022/09/16 11:16:57;;;;;;;14.98;12.70;;;33.60;99.90;;;;;;4985507;28;20030;-92
2022/09/16 12:59:27;;;;;;;16.13;6.50;;;28.70;99.90;;;;;;5939916;23;20091;-92
2022/09/16 13:05:45;;;;;;;17.67;6.40;;;29.10;99.90;;;;;;5049214;23;20117;-94
2022/09/16 13:36:18;;;;;;;14.35;5.85;;;28.80;99.90;;;;;;5927774;23;20111;31
2022/09/16 14:29:26;;;;;;;12.82;6.30;;;27.90;99.90;;;;;;5755769;23;20058;-94
2022/09/16 14:56:33;;;;;;;17.55;6.15;;;28.20;99.90;;;;;;5330509;23;20087;-94
2022/09/16 16:16:43;;;;;;;20.63;7.60;;;27.40;99.90;;;;;;5930487;23;20584;-93
2022/09/16 16:19:27;;;;;;;20.65;7.50;;;27.30;99.90;;;;;;4964818;28;20061;-92
2022/09/16 16:21:57;;;;;;;20.42;7.75;;;27.20;99.90;;;;;;4978271;28;20472;-91
2022/09/16 16:24:30;;;;;;;11.82;6.90;;;27.10;99.90;;;;;;4978487;28;20038;-92
2022/09/16 16:27:16;;;;;;;14.60;6.53;;;27.00;99.90;;;;;;4978085;28;20034;-94
2022/09/16 16:29:43;;;;;;;24.80;7.72;;;26.90;99.90;;;;;;4993659;23;20058;-93
2022/09/16 16:32:12;;;;;;;19.77;7.70;;;26.80;99.90;;;;;;4994048;28;20118;-92
2022/09/16 16:34:43;;;;;;;18.20;8.02;;;26.80;99.90;;;;;;4994260;28;20050;-91
2022/09/16 16:37:12;;;;;;;17.48;8.55;;;26.80;99.90;;;;;;4977980;28;20031;-92
2022/09/16 16:39:38;;;;;;;20.25;8.88;;;26.80;99.90;;;;;;4974233;28;20038;-93
2022/09/16 16:42:05;;;;;;;25.48;10.57;;;26.80;99.90;;;;;;4957997;28;20030;-91
2022/09/16 16:44:32;;;;;;;21.95;10.35;;;26.80;99.90;;;;;;4958730;28;20026;-93
2022/09/16 16:46:59;;;;;;;28.75;10.48;;;26.80;99.90;;;;;;4962008;28;20022;-93
2022/09/16 16:49:26;;;;;;;17.70;7.60;;;26.80;99.90;;;;;;4962337;28;20026;-92
2022/09/16 16:51:56;;;;;;;24.15;9.20;;;26.80;99.90;;;;;;4962137;28;20027;-92
2022/09/16 16:54:24;;;;;;;30.38;10.40;;;26.80;99.90;;;;;;4978445;28;20030;-92
2022/09/16 16:56:51;;;;;;;18.65;9.27;;;26.70;99.90;;;;;;4962427;28;20107;-91
2022/09/16 16:59:19;;;;;;;21.88;9.27;;;26.70;99.90;;;;;;4977981;28;20039;-92
2022/09/16 17:01:49;;;;;;;23.58;8.85;;;26.70;99.90;;;;;;4961988;28;20114;-93
2022/09/16 17:04:16;;;;;;;24.75;9.75;;;26.70;99.90;;;;;;4978421;28;20027;-93
2022/09/16 17:06:45;;;;;;;18.98;8.55;;;26.70;99.90;;;;;;4963155;28;20026;-93
2022/09/16 17:09:12;;;;;;;24.67;8.60;;;26.70;99.90;;;;;;4978264;28;20552;-93
2022/09/16 17:12:08;;;;;;;25.23;9.55;;;26.70;99.90;;;;;;4965920;28;20035;-93
2022/09/16 17:18:28;;;;;;;20.23;7.97;;;26.60;99.90;;;;;;5039048;23;20057;-94
2022/09/16 17:21:14;;;;;;;19.90;8.32;;;26.50;99.90;;;;;;5198096;23;20049;-91
2022/09/16 17:45:21;;;;;;;20.63;9.50;;;26.30;99.90;;;;;;6164021;23;20072;31
2022/09/16 17:51:31;;;;;;;33.95;9.45;;;26.20;99.90;;;;;;5972640;23;20333;-93
2022/09/16 20:15:28;;;;;;;16.45;7.65;;;25.10;99.90;;;;;;5810546;23;20122;31
2022/09/16 20:18:31;;;;;;;;;;;;;;;;;;;;;
2022/09/16 20:21:48;;;;;;;14.07;7.45;;;25.10;99.90;;;;;;4991084;28;20070;-94
2022/09/16 20:50:12;;;;;;;;;;;;;;;;;;;;;
2022/09/16 20:57:36;;;;;;;14.90;7.20;;;24.50;99.90;;;;;;4938736;29;20046;-94
2022/09/16 21:00:19;;;;;;;16.42;8.27;;;24.40;99.90;;;;;;4903856;29;20043;-95
2022/09/16 21:02:53;;;;;;;15.38;7.28;;;24.40;99.90;;;;;;4905057;29;20028;-93
2022/09/16 21:05:20;;;;;;;16.48;7.25;;;24.40;99.90;;;;;;4903796;29;20051;-94
2022/09/16 21:07:46;;;;;;;15.05;6.80;;;24.40;99.90;;;;;;4919857;29;20493;-91
2022/09/16 21:10:13;;;;;;;16.10;7.35;;;24.50;99.90;;;;;;4919318;29;20035;-94
2022/09/16 21:12:39;;;;;;;17.80;8.02;;;24.50;99.90;;;;;;4903597;29;20098;-93
2022/09/16 21:15:07;;;;;;;13.63;7.32;;;24.50;99.90;;;;;;4919226;29;20027;-92
2022/09/16 21:17:33;;;;;;;13.25;7.05;;;24.50;99.90;;;;;;4903361;29;20152;-93
2022/09/16 21:20:00;;;;;;;12.50;6.47;;;24.60;99.90;;;;;;4919251;29;20242;-93
2022/09/16 21:22:28;;;;;;;16.98;7.20;;;24.60;99.90;;;;;;4904276;29;20110;-94
2022/09/16 21:24:54;;;;;;;13.27;6.70;;;24.70;99.90;;;;;;4919371;29;20047;-94
2022/09/16 21:27:20;;;;;;;13.48;6.60;;;24.60;99.90;;;;;;4903574;29;20525;-92
2022/09/16 21:29:57;;;;;;;13.20;6.85;;;24.70;99.90;;;;;;4919057;29;20039;-93
2022/09/16 21:32:24;;;;;;;16.42;6.20;;;24.70;99.90;;;;;;4934157;28;20060;-93
2022/09/16 21:34:51;;;;;;;12.35;6.88;;;24.70;99.90;;;;;;4961742;28;20095;-93
2022/09/16 21:37:18;;;;;;;12.05;6.22;;;24.60;99.90;;;;;;4946250;28;20031;-93
2022/09/16 21:39:44;;;;;;;12.63;6.07;;;24.60;99.90;;;;;;4962695;28;20039;-92
2022/09/16 21:42:11;;;;;;;17.25;6.90;;;24.60;99.90;;;;;;4961319;28;20054;-94
2022/09/16 21:44:40;;;;;;;19.77;7.50;;;24.60;99.90;;;;;;4961346;28;20039;-93
2022/09/16 21:47:10;;;;;;;14.52;7.28;;;24.50;99.90;;;;;;4960905;28;20118;-92
2022/09/16 21:49:36;;;;;;;21.45;7.82;;;24.50;99.90;;;;;;4944967;28;20035;-93
2022/09/16 21:52:03;;;;;;;20.00;7.65;;;24.50;99.90;;;;;;4945177;28;20097;-94
2022/09/16 21:54:31;;;;;;;17.88;7.57;;;24.40;99.90;;;;;;4945108;28;20038;-93
2022/09/16 21:56:58;;;;;;;14.02;7.43;;;24.40;99.90;;;;;;4945089;28;20038;-93
2022/09/16 21:59:25;;;;;;;24.38;8.13;;;24.30;99.90;;;;;;4944931;28;20034;-94
2022/09/16 22:01:51;;;;;;;18.23;8.55;;;24.30;99.90;;;;;;4944824;28;20114;-92
2022/09/16 22:04:21;;;;;;;15.13;7.35;;;24.20;99.90;;;;;;4945276;28;20030;-93
2022/09/16 22:06:49;;;;;;;15.45;7.65;;;24.20;99.90;;;;;;4944805;28;20034;-94
2022/09/16 22:09:16;;;;;;;27.67;9.80;;;24.20;99.90;;;;;;4945237;28;20045;-93
2022/09/16 22:11:43;;;;;;;19.83;10.10;;;24.30;99.90;;;;;;4944997;28;20381;-91
2022/09/16 22:14:13;;;;;;;23.38;11.20;;;24.40;99.90;;;;;;4944702;28;20031;-93
2022/09/16 22:16:40;;;;;;;29.38;11.85;;;24.40;99.90;;;;;;4944512;28;20042;-95
2022/09/16 22:19:13;;;;;;;23.80;13.05;;;24.50;99.90;;;;;;4944556;28;20058;-93
2022/09/16 22:21:42;;;;;;;28.58;13.13;;;24.50;99.90;;;;;;4945193;28;20062;-93
2022/09/16 22:24:10;;;;;;;25.33;11.75;;;24.50;99.90;;;;;;4944761;28;20030;-94
2022/09/16 22:27:17;;;;;;;25.33;12.80;;;24.60;99.90;;;;;;4952295;28;20057;-93
2022/09/16 22:29:51;;;;;;;34.78;13.73;;;24.60;99.90;;;;;;4959637;28;20065;-92
2022/09/16 22:32:18;;;;;;;30.05;12.73;;;24.70;99.90;;;;;;4949493;28;20568;-92
2022/09/16 22:34:44;;;;;;;34.22;14.30;;;24.70;99.90;;;;;;4949979;28;20027;-93
2022/09/16 22:37:14;;;;;;;29.40;12.65;;;24.70;99.90;;;;;;4947649;28;20031;-93
2022/09/16 22:39:40;;;;;;;28.58;13.23;;;24.70;99.90;;;;;;4945951;28;20090;-92
2022/09/16 22:42:07;;;;;;;25.40;12.20;;;24.60;99.90;;;;;;4945370;28;20477;-92
2022/09/16 22:47:53;;;;;;;19.23;11.00;;;24.60;99.90;;;;;;4885914;29;20060;-94
2022/09/16 22:50:19;;;;;;;18.30;9.55;;;24.50;99.90;;;;;;4870004;29;20140;-94
2022/09/16 22:52:48;;;;;;;13.90;9.38;;;24.50;99.90;;;;;;4870114;29;20043;-93
2022/09/16 22:58:54;;;;;;;19.77;8.45;;;24.50;99.90;;;;;;4859202;23;20047;-96
2022/09/16 23:01:27;;;;;;;20.83;8.27;;;24.50;99.90;;;;;;4964449;28;20034;-94
2022/09/16 23:04:00;;;;;;;16.92;8.02;;;24.50;99.90;;;;;;4964781;28;20480;-94
2022/09/16 23:06:32;;;;;;;16.30;7.28;;;24.40;99.90;;;;;;5281954;23;20356;-94
2022/09/16 23:09:04;;;;;;;29.10;7.95;;;24.40;99.90;;;;;;4964620;28;20030;-94
2022/09/16 23:11:34;;;;;;;13.40;6.35;;;24.40;99.90;;;;;;4980428;28;20031;-96
2022/09/16 23:14:05;;;;;;;13.13;7.32;;;24.40;99.90;;;;;;4966910;28;20030;-94
2022/09/16 23:16:37;;;;;;;16.08;6.82;;;24.30;99.90;;;;;;4980496;28;20033;-93
2022/09/16 23:19:07;;;;;;;11.70;6.32;;;24.30;99.90;;;;;;4965484;28;20042;-94
2022/09/16 23:21:38;;;;;;;14.57;6.93;;;24.30;99.90;;;;;;4963753;28;20114;-94
2022/09/16 23:24:18;;;;;;;17.67;6.90;;;24.20;99.90;;;;;;4979289;28;20081;-95
2022/09/16 23:26:46;;;;;;;16.15;6.72;;;24.20;99.90;;;;;;4962644;28;20084;-92
2022/09/16 23:29:15;;;;;;;18.05;7.00;;;24.20;99.90;;;;;;4962530;28;20414;-93
2022/09/16 23:31:43;;;;;;;16.00;6.25;;;24.20;99.90;;;;;;4962663;28;20551;-93
2022/09/16 23:34:16;;;;;;;13.70;5.60;;;24.30;99.90;;;;;;4962559;28;20034;-93
2022/09/16 23:36:44;;;;;;;15.70;6.15;;;24.20;99.90;;;;;;4978566;28;20054;-93
2022/09/16 23:39:20;;;;;;;18.15;6.03;;;24.30;99.90;;;;;;4962315;28;20060;-93
2022/09/16 23:41:48;;;;;;;12.85;5.95;;;24.30;99.90;;;;;;4962189;28;20034;-92
2022/09/16 23:44:16;;;;;;;14.00;5.72;;;24.30;99.90;;;;;;4978222;28;20097;-92
2022/09/16 23:46:43;;;;;;;12.77;6.03;;;24.30;99.90;;;;;;4962076;28;20113;-92
2022/09/16 23:49:11;;;;;;;10.52;5.63;;;24.30;99.90;;;;;;4962272;28;20043;-94
2022/09/16 23:51:50;;;;;;;11.45;5.65;;;24.40;99.90;;;;;;4962239;28;20387;-92
2022/09/16 23:54:16;;;;;;;10.20;5.13;;;24.40;99.90;;;;;;4977740;28;20034;-93
2022/09/16 23:56:43;;;;;;;11.48;5.40;;;24.40;99.90;;;;;;4961700;28;20029;-93
2022/09/16 23:59:10;;;;;;;11.57;5.45;;;24.40;99.90;;;;;;4977821;28;20041;-93
